Time;durP1;ratioP1;P1;durP2;ratioP2;P2;SDS_P1;SDS_P2;PMS_P1;PMS_P2;Temp;Humidity;BMP_temperature;BMP_pressure;BME280_temperature;BME280_humidity;BME280_pressure;Samples;Min_cycle;Max_cycle;Signal;HPM_P1;HPM_P2
2022/04/17 00:01:12;;;;;;;26.00;16.55;;;;;;;4.64;72.51;101756.58;2780275;84;21082;-86
2022/04/17 00:05:13;;;;;;;25.68;15.98;;;;;;;4.58;72.85;101755.00;2785711;84;21046;-86
2022/04/17 00:09:14;;;;;;;21.97;16.65;;;;;;;4.52;72.96;101757.81;2786258;83;21003;-85
2022/04/17 00:13:16;;;;;;;27.70;16.57;;;;;;;4.43;73.12;101750.62;2784749;83;21067;-87
2022/04/17 00:17:17;;;;;;;28.40;19.37;;;;;;;4.36;73.40;101744.28;2798909;85;21109;-86
2022/04/17 00:21:20;;;;;;;36.05;19.80;;;;;;;4.29;73.79;101744.94;2785121;85;21626;-86
2022/04/17 00:25:21;;;;;;;34.95;18.82;;;;;;;4.11;74.41;101736.70;2792589;83;21129;-86
2022/04/17 00:29:23;;;;;;;40.30;22.87;;;;;;;4.01;74.80;101733.97;2772698;83;21031;-85
2022/04/17 00:37:40;;;;;;;34.53;21.17;;;;;;;4.03;74.43;101722.93;2975604;79;22813;-84
2022/04/17 00:41:41;;;;;;;29.95;19.37;;;;;;;3.97;74.45;101725.29;2933457;79;21011;-85
2022/04/17 00:45:42;;;;;;;26.90;18.50;;;;;;;3.96;74.31;101725.36;2898578;81;21050;-83
2022/04/17 00:49:45;;;;;;;28.83;20.97;;;;;;;3.90;74.31;101724.21;2868046;81;21006;-84
2022/04/17 00:53:46;;;;;;;41.53;24.70;;;;;;;3.91;74.51;101721.98;2881585;80;21090;-86
2022/04/17 00:57:48;;;;;;;44.90;28.77;;;;;;;3.89;74.37;101719.85;2834297;83;21038;-87
2022/04/17 01:01:49;;;;;;;31.30;18.17;;;;;;;3.89;74.52;101722.48;2845714;82;21077;-84
2022/04/17 01:05:51;;;;;;;44.53;25.80;;;;;;;3.83;74.58;101730.98;2849072;82;21078;-84
2022/04/17 01:09:55;;;;;;;40.08;26.52;;;;;;;3.77;74.65;101733.81;2880034;81;20999;-83
2022/04/17 01:13:57;;;;;;;46.00;27.95;;;;;;;3.67;75.54;101734.98;2839036;82;21156;-84
2022/04/17 01:18:00;;;;;;;36.03;23.27;;;;;;;3.62;76.05;101735.11;2889898;80;21090;-85
2022/04/17 01:22:01;;;;;;;32.42;20.08;;;;;;;3.67;75.87;101734.98;2840533;83;21066;-84
2022/04/17 01:30:22;;;;;;;29.25;16.85;;;;;;;3.50;75.99;101723.65;2851393;83;20991;-85
2022/04/17 01:34:24;;;;;;;23.67;17.07;;;;;;;3.50;75.71;101715.76;2874595;81;21071;-84
2022/04/17 01:38:25;;;;;;;30.77;18.62;;;;;;;3.47;75.25;101708.80;2864428;81;21105;-85
2022/04/17 01:42:26;;;;;;;24.60;16.57;;;;;;;3.51;74.96;101706.48;2820353;83;21073;-82
2022/04/17 01:46:27;;;;;;;25.08;17.02;;;;;;;3.47;75.07;101702.23;2819603;82;20966;-85
2022/04/17 01:50:30;;;;;;;23.85;15.45;;;;;;;3.43;74.96;101704.55;2850224;81;21046;-84
2022/04/17 01:54:32;;;;;;;25.00;15.58;;;;;;;3.39;74.97;101697.66;2863769;81;21063;-85
2022/04/17 01:58:33;;;;;;;25.35;14.87;;;;;;;3.35;75.49;101701.28;2853060;81;21102;-85
2022/04/17 02:02:35;;;;;;;22.58;14.68;;;;;;;3.35;75.54;101693.40;2825534;81;21614;-82
2022/04/17 02:06:39;;;;;;;27.42;17.27;;;;;;;3.32;75.40;101682.94;2847956;81;21078;-84
2022/04/17 02:10:40;;;;;;;21.97;14.60;;;;;;;3.24;75.31;101674.83;2867236;81;21015;-84
2022/04/17 02:14:41;;;;;;;21.37;15.85;;;;;;;3.19;75.38;101677.17;2886041;81;21062;-85
2022/04/17 02:18:43;;;;;;;25.80;17.20;;;;;;;3.18;75.49;101684.22;2832712;81;21554;-86
2022/04/17 02:22:45;;;;;;;34.60;18.65;;;;;;;3.18;75.68;101688.16;2826678;81;21063;-84
2022/04/17 02:26:46;;;;;;;26.48;18.35;;;;;;;3.18;75.58;101693.42;2866916;81;21074;-84
2022/04/17 02:30:47;;;;;;;24.60;18.50;;;;;;;3.18;75.50;101697.36;2836005;81;21015;-84
2022/04/17 02:34:48;;;;;;;36.42;18.90;;;;;;;3.16;75.36;101697.86;2851670;81;21011;-83
2022/04/17 02:38:49;;;;;;;23.85;16.37;;;;;;;3.08;75.98;101695.88;2850159;82;21034;-86
2022/04/17 02:42:53;;;;;;;19.75;14.33;;;;;;;2.94;76.27;101698.43;2830379;83;21106;-85
2022/04/17 02:51:13;;;;;;;24.35;16.70;;;;;;;2.67;78.01;101712.72;2835631;83;21497;-84
2022/04/17 02:55:14;;;;;;;27.15;18.80;;;;;;;2.52;79.73;101710.05;2890017;81;21090;-85
2022/04/17 02:59:15;;;;;;;24.35;17.70;;;;;;;2.39;81.45;101714.75;2820586;83;21018;-84
2022/04/17 03:07:36;;;;;;;22.30;15.78;;;;;;;2.20;83.53;101710.38;2876971;81;21360;-84
2022/04/17 03:11:37;;;;;;;21.75;14.10;;;;;;;2.31;81.93;101714.52;2869460;82;21590;-84
2022/04/17 03:15:39;;;;;;;20.35;13.53;;;;;;;2.38;80.92;101709.08;2885554;81;21047;-85
2022/04/17 03:19:41;;;;;;;26.90;16.62;;;;;;;2.48;80.03;101718.03;2873360;81;21727;-88
2022/04/17 03:23:42;;;;;;;24.02;15.08;;;;;;;2.57;79.69;101723.92;2832471;82;21612;-83
2022/04/17 03:27:46;;;;;;;22.50;13.55;;;;;;;2.65;79.33;101725.05;2857867;82;20992;-85
2022/04/17 03:31:48;;;;;;;21.57;15.85;;;;;;;2.66;78.48;101724.61;2873486;81;21079;-85
2022/04/17 03:35:49;;;;;;;26.20;15.40;;;;;;;2.70;78.61;101717.05;2849848;82;21095;-85
2022/04/17 03:39:51;;;;;;;24.60;14.85;;;;;;;2.63;78.75;101719.41;2808816;83;21055;-85
2022/04/17 03:43:53;;;;;;;30.02;19.35;;;;;;;2.66;79.29;101717.57;2820505;83;21074;-85
2022/04/17 03:47:54;;;;;;;23.32;16.37;;;;;;;2.62;79.28;101714.61;2854219;81;21013;-85
2022/04/17 03:51:55;;;;;;;28.52;18.40;;;;;;;2.49;79.06;101719.33;2807507;84;21036;-85
2022/04/17 03:55:56;;;;;;;24.82;19.57;;;;;;;2.37;78.85;101719.18;2832161;81;21136;-86
2022/04/17 03:59:58;;;;;;;30.25;17.90;;;;;;;2.35;78.73;101724.05;2823583;84;20996;-85
2022/04/17 04:03:59;;;;;;;28.32;19.60;;;;;;;2.33;79.12;101724.07;2855955;81;21030;-84
2022/04/17 04:08:00;;;;;;;27.52;16.50;;;;;;;2.37;79.76;101715.67;2811356;83;21056;-86
2022/04/17 04:12:01;;;;;;;28.87;14.93;;;;;;;2.43;80.35;101707.20;2854525;81;21045;-87
2022/04/17 04:16:03;;;;;;;31.30;20.45;;;;;;;2.39;79.93;101710.81;2814795;83;21638;-84
2022/04/17 04:20:06;;;;;;;33.75;22.90;;;;;;;2.37;80.15;101712.62;2843536;81;21097;-87
2022/04/17 04:24:07;;;;;;;24.35;18.95;;;;;;;2.56;81.04;101714.78;2809270;84;21110;-82
2022/04/17 04:32:27;;;;;;;25.00;17.82;;;;;;;3.31;81.37;101713.66;2801293;84;21059;-86
2022/04/17 04:36:29;;;;;;;37.98;18.07;;;;;;;3.85;82.33;101709.42;2880338;81;21375;-86
2022/04/17 04:40:30;;;;;;;37.20;20.25;;;;;;;4.64;82.34;101710.45;2833657;82;21078;-86
2022/04/17 04:44:31;;;;;;;31.05;20.82;;;;;;;5.25;77.92;101715.31;2886408;81;21003;-87
2022/04/17 04:52:57;;;;;;;27.98;17.98;;;;;;;6.66;74.20;101715.56;2873478;82;21054;-86
2022/04/17 04:57:00;;;;;;;28.45;16.77;;;;;;;7.37;73.31;101720.02;2843992;82;21054;-86
2022/04/17 05:01:01;;;;;;;22.35;15.08;;;;;;;7.98;69.61;101714.97;2889268;81;21097;-84
2022/04/17 05:05:04;;;;;;;42.70;16.02;;;;;;;8.63;68.25;101716.72;2837202;82;21070;-85
2022/04/17 05:09:06;;;;;;;26.73;17.95;;;;;;;9.06;65.58;101711.00;2892877;81;21483;-81
2022/04/17 05:13:07;;;;;;;22.62;16.30;;;;;;;9.21;64.47;101717.28;2863064;82;20989;-86
2022/04/17 05:17:08;;;;;;;26.42;16.42;;;;;;;9.09;64.36;101713.48;2892301;82;21112;-87
2022/04/17 05:21:09;;;;;;;26.50;16.35;;;;;;;9.06;64.08;101714.98;2836809;82;21054;-87
2022/04/17 05:25:10;;;;;;;20.43;14.95;;;;;;;8.77;63.70;101713.36;2836805;83;21054;-86
2022/04/17 05:29:11;;;;;;;25.20;17.52;;;;;;;8.13;65.16;101712.04;2870042;82;21026;-87
2022/04/17 05:33:13;;;;;;;28.10;16.50;;;;;;;8.03;66.91;101712.08;2891613;81;21181;-86
2022/04/17 05:37:15;;;;;;;28.40;17.23;;;;;;;8.15;67.73;101709.30;2847850;82;21538;-84
2022/04/17 05:41:16;;;;;;;20.05;14.15;;;;;;;8.41;68.12;101711.15;2882340;81;21574;-83
2022/04/17 05:45:18;;;;;;;16.17;14.50;;;;;;;8.78;68.28;101705.78;2828283;83;21042;-87
2022/04/17 05:49:21;;;;;;;23.85;15.03;;;;;;;9.06;66.55;101713.66;2837848;81;21030;-84
2022/04/17 05:53:22;;;;;;;20.20;15.85;;;;;;;8.66;65.54;101714.78;2892256;81;21066;-85
2022/04/17 05:57:24;;;;;;;18.55;14.90;;;;;;;8.38;66.76;101716.61;2838344;81;21103;-87
2022/04/17 06:01:25;;;;;;;22.77;16.48;;;;;;;7.96;68.33;101719.95;2867379;81;21030;-85
2022/04/17 06:05:26;;;;;;;20.45;14.75;;;;;;;8.26;70.26;101716.75;2823434;83;21066;-87
2022/04/17 06:09:27;;;;;;;24.77;16.32;;;;;;;8.99;70.08;101713.95;2827108;83;21085;-86
2022/04/17 06:13:28;;;;;;;22.52;14.80;;;;;;;9.54;67.27;101712.43;2818922;83;21078;-84
2022/04/17 06:17:41;;;;;;;18.85;14.55;;;;;;;9.97;65.19;101707.83;2818214;83;21003;-87
2022/04/17 06:21:43;;;;;;;24.77;15.78;;;;;;;10.18;63.84;101707.09;2896245;81;20995;-85
2022/04/17 06:25:44;;;;;;;26.50;16.10;;;;;;;10.25;60.52;101701.79;2836561;82;21065;-86
2022/04/17 06:29:45;;;;;;;21.05;15.25;;;;;;;10.11;61.52;101711.03;2860314;82;21001;-87
2022/04/17 06:33:46;;;;;;;24.35;13.62;;;;;;;10.17;60.38;101711.16;2860339;82;21621;-85
2022/04/17 06:38:00;;;;;;;18.85;13.48;;;;;;;10.35;60.41;101702.60;2828228;82;21023;-86
2022/04/17 06:42:01;;;;;;;18.87;12.98;;;;;;;10.62;59.48;101700.61;2837340;82;21077;-87
2022/04/17 06:46:02;;;;;;;20.20;13.05;;;;;;;10.77;59.34;101689.52;2870616;81;21721;-85
2022/04/17 06:50:04;;;;;;;20.65;14.43;;;;;;;11.05;60.88;101694.51;2849420;81;21093;-86
2022/04/17 06:54:05;;;;;;;14.33;10.65;;;;;;;11.29;57.81;101695.64;2875636;81;21011;-85
2022/04/17 06:58:08;;;;;;;17.52;11.53;;;;;;;11.62;58.11;101700.75;2871620;81;21130;-85
2022/04/17 07:02:10;;;;;;;16.73;12.05;;;;;;;11.82;57.50;101684.80;2833936;83;21015;-88
2022/04/17 07:06:11;;;;;;;15.65;12.28;;;;;;;11.86;56.56;101688.96;2872781;80;21510;-86
2022/04/17 07:10:13;;;;;;;19.35;12.98;;;;;;;12.27;56.30;101685.91;2892245;81;21066;-86
2022/04/17 07:14:14;;;;;;;17.15;11.03;;;;;;;12.46;54.02;101685.50;2837264;82;21756;-85
2022/04/17 07:18:16;;;;;;;15.90;10.98;;;;;;;12.47;53.36;101694.38;2882292;81;21420;-83
2022/04/17 07:22:17;;;;;;;18.75;12.18;;;;;;;12.11;55.14;101681.58;2833628;82;21030;-84
2022/04/17 07:26:19;;;;;;;15.72;9.05;;;;;;;12.21;55.96;101683.66;2842789;82;21094;-84
2022/04/17 07:30:22;;;;;;;16.65;11.90;;;;;;;12.38;55.21;101671.38;2838292;82;20999;-84
2022/04/17 07:34:23;;;;;;;10.63;8.43;;;;;;;12.57;55.17;101673.63;2863226;81;21046;-85
2022/04/17 07:38:25;;;;;;;10.50;6.85;;;;;;;12.48;53.63;101674.28;2817902;82;21028;-86
2022/04/17 07:42:28;;;;;;;10.78;7.50;;;;;;;12.77;51.54;101673.20;2857613;83;20983;-86
2022/04/17 07:46:30;;;;;;;9.00;5.35;;;;;;;12.99;49.89;101668.57;2828077;83;21586;-83
2022/04/17 07:50:32;;;;;;;9.25;4.87;;;;;;;13.05;49.06;101672.64;2805028;84;21859;-85
2022/04/17 07:54:33;;;;;;;10.00;5.25;;;;;;;13.05;47.21;101667.30;2809215;84;21602;-85
2022/04/17 07:58:35;;;;;;;9.60;3.77;;;;;;;13.17;48.00;101667.77;2806341;84;21588;-85
2022/04/17 08:02:49;;;;;;;6.03;5.12;;;;;;;13.33;46.99;101668.86;2812225;83;21076;-84
2022/04/17 08:06:39;;;;;;;7.65;5.58;;;;;;;13.39;46.95;101661.73;2815699;84;21020;-82
2022/04/17 08:10:41;;;;;;;11.57;7.62;;;;;;;13.50;49.11;101656.97;2803202;83;21028;-84
2022/04/17 08:14:42;;;;;;;11.40;7.37;;;;;;;13.51;49.06;101657.84;2815366;83;21036;-81
2022/04/17 08:18:43;;;;;;;6.83;5.47;;;;;;;13.39;49.71;101646.19;2807217;83;21102;-85
2022/04/17 08:22:44;;;;;;;7.03;5.45;;;;;;;13.28;49.37;101648.30;2808334;84;21047;-79
2022/04/17 08:26:45;;;;;;;7.33;6.00;;;;;;;13.07;50.33;101641.33;2820716;84;21512;-84
2022/04/17 08:30:47;;;;;;;6.62;5.92;;;;;;;12.82;48.59;101635.88;2849422;82;21035;-84
2022/04/17 08:34:48;;;;;;;8.55;4.92;;;;;;;12.79;51.60;101628.09;2815092;83;21032;-83
2022/04/17 08:38:49;;;;;;;7.22;3.83;;;;;;;12.99;51.12;101632.52;2813903;83;21051;-85
2022/04/17 08:42:50;;;;;;;5.10;4.47;;;;;;;12.83;48.14;101627.41;2818254;82;21051;-83
2022/04/17 08:46:52;;;;;;;5.60;5.05;;;;;;;12.73;47.48;101629.00;2843140;81;21079;-83
2022/04/17 08:50:55;;;;;;;5.50;5.00;;;;;;;12.91;48.50;101621.53;2833796;82;21353;-81
2022/04/17 08:54:59;;;;;;;6.87;5.00;;;;;;;12.68;48.89;101620.84;2788801;84;21071;-85
2022/04/17 08:59:00;;;;;;;7.20;4.87;;;;;;;12.32;48.74;101617.07;2830045;82;21042;-83
2022/04/17 09:03:01;;;;;;;6.47;5.17;;;;;;;11.95;50.06;101619.52;2839631;81;20994;-81
2022/04/17 09:07:10;;;;;;;6.28;5.00;;;;;;;11.79;50.38;101613.02;2849671;83;21072;-88
2022/04/17 09:11:11;;;;;;;8.38;4.62;;;;;;;11.89;51.90;101602.14;2863458;82;21107;-85
2022/04/17 09:15:14;;;;;;;6.65;4.58;;;;;;;12.03;51.31;101598.58;2837544;81;21604;-88
2022/04/17 09:19:18;;;;;;;5.53;3.92;;;;;;;12.17;48.74;101596.77;2834572;83;21061;-88
2022/04/17 09:23:36;;;;;;;5.35;3.50;;;;;;;12.40;48.72;101588.06;2811695;83;21098;-91
2022/04/17 09:27:41;;;;;;;4.35;3.47;;;;;;;12.56;49.58;101582.51;2813448;83;21078;-89
2022/04/17 09:31:41;;;;;;;5.97;3.45;;;;;;;12.63;50.13;101584.27;2828309;83;21138;-82
2022/04/17 09:35:56;;;;;;;5.53;4.33;;;;;;;12.44;50.20;101578.02;2843301;83;21070;-85
2022/04/17 09:40:07;;;;;;;8.78;3.80;;;;;;;12.14;49.63;101569.34;2865020;81;21082;-87
2022/04/17 09:44:11;;;;;;;4.97;3.87;;;;;;;12.04;50.27;101561.61;2826491;83;21074;-88
2022/04/17 09:48:20;;;;;;;4.62;3.60;;;;;;;12.12;49.91;101549.93;2857771;81;21611;-84
2022/04/17 09:52:31;;;;;;;6.47;3.98;;;;;;;12.19;51.72;101543.70;2842126;82;21027;-87
2022/04/17 10:08:26;;;;;;;4.92;3.65;;;;;;;13.19;47.28;101526.91;2946260;78;22237;-92
2022/04/17 10:12:28;;;;;;;4.97;3.12;;;;;;;13.13;48.51;101530.01;2844861;81;21008;-89
2022/04/17 10:16:31;;;;;;;4.92;3.25;;;;;;;13.03;47.72;101528.98;2855101;82;20998;-87
2022/04/17 10:20:32;;;;;;;6.65;4.12;;;;;;;13.05;47.17;101513.20;2823830;82;21078;-91
2022/04/17 10:24:39;;;;;;;3.50;2.37;;;;;;;13.14;50.40;101506.34;2840997;80;21601;-84
2022/04/17 10:28:44;;;;;;;3.22;1.62;;;;;;;13.16;49.72;101508.91;2846986;81;21575;-82
2022/04/17 10:33:03;;;;;;;2.47;1.87;;;;;;;13.14;46.95;101511.67;2801609;82;21499;-85
2022/04/17 10:37:40;;;;;;;2.42;1.52;;;;;;;13.07;48.35;101505.09;2825706;82;21075;-90
2022/04/17 10:41:42;;;;;;;3.77;1.75;;;;;;;13.00;45.47;101504.21;2823320;82;21095;-89
2022/04/17 10:46:14;;;;;;;3.30;2.35;;;;;;;12.91;46.00;101492.84;2809642;81;21044;-87
2022/04/17 10:50:21;;;;;;;4.37;2.10;;;;;;;12.95;46.49;101486.81;2797964;82;21022;-90
2022/04/17 10:54:24;;;;;;;3.20;1.70;;;;;;;13.08;45.23;101475.61;2809421;83;21062;-88
2022/04/17 10:58:44;;;;;;;2.45;1.60;;;;;;;13.15;45.80;101470.64;2786005;81;21083;-89
2022/04/17 11:02:46;;;;;;;1.62;1.52;;;;;;;13.22;48.54;101462.56;2786265;82;21058;-91
2022/04/17 11:07:07;;;;;;;2.47;1.85;;;;;;;13.12;45.21;101462.86;2792862;82;21122;-88
2022/04/17 11:11:10;;;;;;;2.20;1.85;;;;;;;13.30;47.18;101455.31;2819711;82;21187;-89
2022/04/17 11:28:50;;;;;;;2.40;2.15;;;;;;;13.99;49.05;101425.12;2836783;78;22270;-85
2022/04/17 11:32:52;;;;;;;2.58;2.00;;;;;;;13.91;45.42;101428.02;2791539;83;21054;-82
2022/04/17 11:36:53;;;;;;;2.08;1.92;;;;;;;13.84;45.30;101430.31;2742027;83;21481;-87
2022/04/17 11:40:54;;;;;;;2.85;2.17;;;;;;;13.94;48.41;101435.80;2769916;85;21028;-83
2022/04/17 11:45:00;;;;;;;1.75;1.30;;;;;;;13.99;45.13;101423.78;2756688;83;21311;-88
2022/04/17 11:49:01;;;;;;;2.17;1.98;;;;;;;14.24;45.28;101419.66;2767653;83;21007;-86
2022/04/17 11:53:08;;;;;;;2.90;2.30;;;;;;;14.47;44.80;101402.23;2740229;84;21011;-87
2022/04/17 11:57:13;;;;;;;4.67;2.50;;;;;;;14.47;45.51;101418.30;2737408;85;21088;-83
2022/04/17 12:01:19;;;;;;;3.95;2.72;;;;;;;14.36;45.45;101394.60;2756263;84;21055;-85
2022/04/17 12:05:20;;;;;;;2.52;2.33;;;;;;;14.42;45.25;101384.73;2756181;83;21120;-86
2022/04/17 12:09:21;;;;;;;2.92;2.35;;;;;;;14.21;45.59;101377.93;2750483;84;21619;-86
2022/04/17 12:13:24;;;;;;;2.98;2.55;;;;;;;14.39;47.87;101374.27;2754566;83;21073;-86
2022/04/17 12:17:25;;;;;;;4.62;2.67;;;;;;;14.54;45.93;101371.30;2724553;85;21091;-86
2022/04/17 12:21:28;;;;;;;2.98;2.17;;;;;;;14.54;45.94;101365.48;2773809;83;21021;-87
2022/04/17 12:25:30;;;;;;;4.40;2.35;;;;;;;14.50;46.02;101356.00;2766978;85;21144;-87
2022/04/17 12:29:32;;;;;;;5.30;3.00;;;;;;;14.65;50.18;101353.05;2794009;84;21163;-86
2022/04/17 12:33:33;;;;;;;2.58;2.00;;;;;;;14.54;45.39;101348.55;2777447;83;21622;-83
2022/04/17 12:37:35;;;;;;;3.83;2.12;;;;;;;14.43;44.98;101347.61;2710012;86;21160;-86
2022/04/17 12:41:42;;;;;;;2.90;2.02;;;;;;;14.47;45.99;101332.16;2708809;86;21155;-86
2022/04/17 12:45:59;;;;;;;3.75;2.20;;;;;;;14.46;48.16;101326.45;2733270;85;21145;-85
2022/04/17 12:50:14;;;;;;;3.00;1.82;;;;;;;14.42;47.85;101321.82;2722479;84;21047;-85
2022/04/17 12:54:13;;;;;;;3.85;2.47;;;;;;;14.38;45.38;101314.16;2710284;85;21392;-83
2022/04/17 12:58:15;;;;;;;3.52;2.15;;;;;;;14.40;48.42;101302.37;2721485;85;21159;-84
2022/04/17 13:02:27;;;;;;;6.30;3.00;;;;;;;14.20;48.58;101316.02;2733761;86;21115;-85
2022/04/17 13:06:28;;;;;;;5.37;2.77;;;;;;;14.02;47.37;101296.10;2709979;85;21676;-85
2022/04/17 13:10:30;;;;;;;6.05;2.47;;;;;;;14.11;46.56;101280.66;2718003;85;21072;-84
2022/04/17 13:14:32;;;;;;;2.55;1.85;;;;;;;14.28;45.98;101267.23;2727374;85;21112;-85
2022/04/17 13:18:34;;;;;;;2.90;2.58;;;;;;;14.30;46.96;101270.63;2736131;84;21021;-85
2022/04/17 13:22:35;;;;;;;2.60;2.27;;;;;;;14.47;46.44;101255.00;2713798;85;21073;-87
2022/04/17 13:26:37;;;;;;;2.60;1.98;;;;;;;14.24;45.27;101251.91;2738628;85;21633;-84
2022/04/17 13:30:39;;;;;;;3.15;2.00;;;;;;;14.37;47.89;101243.73;2766708;85;21056;-86
2022/04/17 13:34:42;;;;;;;2.35;2.15;;;;;;;14.61;45.56;101234.63;2768322;85;21056;-86
2022/04/17 13:38:44;;;;;;;3.75;2.52;;;;;;;14.69;44.39;101229.47;2770356;84;21482;-84
2022/04/17 13:42:46;;;;;;;2.15;1.85;;;;;;;14.73;44.80;101222.06;2767272;85;21061;-86
2022/04/17 13:46:47;;;;;;;3.42;1.42;;;;;;;14.85;45.84;101221.50;2759277;85;21044;-85
2022/04/17 13:50:50;;;;;;;3.15;2.12;;;;;;;14.67;44.58;101205.98;2770684;84;21161;-87
2022/04/17 13:54:57;;;;;;;2.02;1.75;;;;;;;14.36;44.78;101202.37;2780129;84;21085;-85
2022/04/17 13:58:55;;;;;;;4.33;2.55;;;;;;;14.29;45.88;101199.34;2781702;84;21116;-86
2022/04/17 14:02:56;;;;;;;5.17;2.35;;;;;;;14.25;48.00;101209.95;2772404;84;21085;-86
2022/04/17 14:06:58;;;;;;;2.17;1.70;;;;;;;14.30;47.52;101197.03;2775171;84;21085;-86
2022/04/17 14:10:59;;;;;;;2.35;1.75;;;;;;;14.51;45.42;101191.72;2777320;84;21107;-85
2022/04/17 14:15:00;;;;;;;2.42;1.60;;;;;;;14.77;46.59;101194.54;2751248;85;21091;-85
2022/04/17 14:19:02;;;;;;;2.22;1.80;;;;;;;14.96;46.42;101189.30;2773652;84;21707;-86
2022/04/17 14:23:03;;;;;;;2.65;1.35;;;;;;;14.94;44.45;101181.02;2778210;84;21100;-85
2022/04/17 14:27:04;;;;;;;2.15;1.52;;;;;;;15.02;44.65;101168.30;2769941;84;21047;-86
2022/04/17 14:31:05;;;;;;;1.90;1.50;;;;;;;14.67;45.60;101154.28;2775091;85;21028;-84
2022/04/17 14:35:08;;;;;;;1.15;1.05;;;;;;;14.63;45.48;101164.86;2778019;84;22304;-87
2022/04/17 14:39:09;;;;;;;1.72;1.25;;;;;;;14.63;45.16;101161.72;2771884;85;21080;-86
2022/04/17 14:43:10;;;;;;;1.57;1.22;;;;;;;14.78;45.95;101153.39;2774357;84;21079;-90
2022/04/17 14:47:12;;;;;;;1.42;1.32;;;;;;;14.82;45.62;101152.13;2782733;84;21069;-89
2022/04/17 14:51:14;;;;;;;3.17;1.75;;;;;;;14.92;45.28;101137.45;2771575;84;21084;-87
2022/04/17 14:55:15;;;;;;;3.75;1.95;;;;;;;14.83;44.05;101139.09;2781891;84;21047;-89
2022/04/17 14:59:17;;;;;;;1.57;1.47;;;;;;;14.78;45.72;101146.69;2778439;83;21616;-86
2022/04/17 15:03:19;;;;;;;1.77;1.37;;;;;;;14.73;45.53;101137.70;2773758;84;21040;-85
2022/04/17 15:07:20;;;;;;;6.97;1.90;;;;;;;14.82;45.14;101132.05;2780056;83;21618;-89
2022/04/17 15:11:22;;;;;;;3.85;1.95;;;;;;;14.84;44.51;101116.69;2784177;84;21109;-86
2022/04/17 15:15:23;;;;;;;3.42;2.60;;;;;;;14.92;45.86;101126.23;2777613;84;21121;-87
2022/04/17 15:19:28;;;;;;;4.10;2.08;;;;;;;15.01;44.17;101106.33;2778093;83;21060;-89
2022/04/17 15:23:30;;;;;;;4.17;2.43;;;;;;;15.06;42.99;101100.06;2777148;84;21532;-88
2022/04/17 15:27:31;;;;;;;3.40;1.70;;;;;;;15.14;44.30;101091.71;2754598;83;21131;-88
2022/04/17 15:31:32;;;;;;;1.82;1.50;;;;;;;14.98;46.72;101098.06;2782032;84;21032;-92
2022/04/17 15:35:33;;;;;;;2.65;1.17;;;;;;;15.07;45.95;101091.91;2779899;84;21060;-91
2022/04/17 15:39:34;;;;;;;3.70;1.55;;;;;;;15.00;44.94;101082.70;2774015;84;21036;-91
2022/04/17 15:48:06;;;;;;;1.62;1.00;;;;;;;15.03;45.34;101073.55;2775742;85;21050;-90
2022/04/17 15:52:03;;;;;;;3.22;1.32;;;;;;;14.93;44.56;101060.95;2778478;85;21051;-87
2022/04/17 15:56:05;;;;;;;2.87;1.60;;;;;;;14.83;43.75;101053.39;2777237;85;21033;-89
2022/04/17 16:00:07;;;;;;;2.75;1.85;;;;;;;14.82;45.27;101060.56;2774945;84;21093;-89
2022/04/17 16:04:08;;;;;;;1.60;1.47;;;;;;;14.65;45.53;101062.52;2778292;84;21043;-90
2022/04/17 16:08:09;;;;;;;1.87;1.25;;;;;;;14.47;45.73;101052.91;2774832;84;21048;-88
2022/04/17 16:12:11;;;;;;;1.75;1.27;;;;;;;14.50;46.78;101055.31;2771223;84;21081;-89
2022/04/17 16:16:13;;;;;;;1.65;1.55;;;;;;;14.52;46.00;101052.00;2776601;85;21061;-86
2022/04/17 16:20:14;;;;;;;3.42;2.27;;;;;;;14.54;48.54;101046.03;2775790;85;21040;-89
2022/04/17 16:24:15;;;;;;;5.50;1.62;;;;;;;14.46;46.06;101052.55;2778209;84;21012;-86
2022/04/17 16:28:17;;;;;;;1.87;1.25;;;;;;;14.32;45.28;101042.53;2779873;84;21079;-89
2022/04/17 16:32:20;;;;;;;4.55;1.57;;;;;;;14.24;45.62;101050.37;2775458;84;21092;-84
2022/04/17 16:36:21;;;;;;;2.80;1.60;;;;;;;14.13;46.51;101037.92;2781458;85;21607;-86
2022/04/17 16:40:24;;;;;;;3.05;1.37;;;;;;;14.00;44.73;101043.47;2726592;86;21077;-87
2022/04/17 16:44:25;;;;;;;3.70;2.27;;;;;;;13.93;45.15;101043.13;2727547;85;21091;-87
2022/04/17 16:48:27;;;;;;;1.70;1.60;;;;;;;13.79;44.53;101042.09;2715107;84;21057;-88
2022/04/17 16:52:28;;;;;;;1.95;1.22;;;;;;;13.67;46.02;101034.62;2807800;83;21089;-87
2022/04/17 16:56:29;;;;;;;2.77;1.70;;;;;;;13.51;45.28;101035.05;2776437;84;21635;-88
2022/04/17 17:00:30;;;;;;;1.77;1.20;;;;;;;13.37;46.13;101039.66;2717768;85;21156;-89
2022/04/17 17:04:31;;;;;;;1.65;1.25;;;;;;;13.18;45.70;101024.30;2717104;84;21054;-88
2022/04/17 17:08:33;;;;;;;2.90;1.65;;;;;;;13.05;48.20;101035.61;2786559;84;21642;-89
2022/04/17 17:12:34;;;;;;;3.75;1.67;;;;;;;12.78;48.48;101023.50;2770888;83;21525;-88
2022/04/17 17:16:37;;;;;;;3.65;2.27;;;;;;;12.66;49.17;101024.83;2750535;85;21029;-88
2022/04/17 17:20:39;;;;;;;5.67;1.62;;;;;;;12.51;49.05;101024.23;2762348;84;21600;-88
2022/04/17 17:24:40;;;;;;;2.05;1.75;;;;;;;12.40;49.20;101026.87;2784020;84;21085;-89
2022/04/17 17:28:42;;;;;;;3.15;2.20;;;;;;;12.31;48.77;101029.77;2733245;84;21636;-88
2022/04/17 17:32:43;;;;;;;10.38;7.20;;;;;;;12.26;48.31;101024.78;2724506;86;21102;-85
2022/04/17 17:36:44;;;;;;;13.08;8.48;;;;;;;12.23;48.25;101021.02;2766601;84;21107;-89
2022/04/17 17:40:46;;;;;;;9.30;6.70;;;;;;;12.18;48.39;101023.20;2759026;84;21052;-89
2022/04/17 17:44:48;;;;;;;18.02;11.08;;;;;;;12.13;47.94;101019.55;2767247;85;21050;-86
2022/04/17 17:48:49;;;;;;;26.20;16.17;;;;;;;12.11;47.79;101015.32;2751549;83;21116;-85
2022/04/17 17:52:50;;;;;;;5.40;4.20;;;;;;;12.07;48.02;101012.03;2743513;84;21109;-87
2022/04/17 17:56:52;;;;;;;12.45;7.60;;;;;;;12.04;50.37;101012.27;2745621;85;21584;-86
2022/04/17 18:00:55;;;;;;;13.98;7.00;;;;;;;11.94;50.33;101017.42;2744624;85;21629;-87
2022/04/17 18:04:56;;;;;;;7.05;4.58;;;;;;;11.83;50.35;101012.05;2742845;84;21117;-87
2022/04/17 18:17:41;;;;;;;22.22;5.40;;;;;;;11.35;54.22;101006.27;2789432;81;21076;-86
2022/04/17 18:21:43;;;;;;;7.93;3.20;;;;;;;11.16;55.17;101004.13;2761149;83;21154;-84
2022/04/17 18:25:47;;;;;;;16.25;4.10;;;;;;;10.95;55.52;101006.05;2787008;84;21034;-87
2022/04/17 18:29:48;;;;;;;9.35;3.83;;;;;;;10.84;55.47;101000.17;2764120;84;21177;-88
2022/04/17 18:33:49;;;;;;;5.12;4.62;;;;;;;10.79;55.14;100999.16;2784395;83;21004;-88
2022/04/17 18:37:51;;;;;;;6.62;3.95;;;;;;;10.77;53.95;101008.20;2774442;84;21065;-84
2022/04/17 18:41:52;;;;;;;5.55;3.58;;;;;;;10.79;54.07;100999.63;2756858;84;21103;-85
2022/04/17 18:45:54;;;;;;;8.30;3.95;;;;;;;10.82;55.42;100999.44;2719285;86;21051;-92
2022/04/17 18:49:56;;;;;;;8.38;2.80;;;;;;;10.79;56.80;101003.62;2720174;86;21087;-88
2022/04/17 18:53:58;;;;;;;10.32;4.03;;;;;;;10.76;56.60;100998.52;2755177;84;21082;-89
2022/04/17 18:57:59;;;;;;;6.30;4.47;;;;;;;10.68;57.55;100997.73;2772890;83;21102;-88
2022/04/17 19:02:00;;;;;;;6.70;5.67;;;;;;;10.58;58.81;101001.53;2775819;83;21018;-88
2022/04/17 19:06:01;;;;;;;10.58;5.15;;;;;;;10.47;59.17;100998.30;2752600;84;21620;-88
2022/04/17 19:10:03;;;;;;;6.95;4.53;;;;;;;10.35;60.12;100988.50;2762300;84;21081;-87
2022/04/17 19:14:08;;;;;;;8.88;5.58;;;;;;;10.30;59.68;100995.46;2759018;84;21086;-89
2022/04/17 19:18:07;;;;;;;12.53;7.33;;;;;;;10.29;60.06;100992.43;2749338;84;21065;-88
2022/04/17 19:22:09;;;;;;;11.40;7.05;;;;;;;10.24;60.58;100988.75;2758638;85;21486;-87
2022/04/17 19:26:10;;;;;;;6.65;5.80;;;;;;;10.24;60.18;100979.94;2760918;84;21089;-88
2022/04/17 19:30:13;;;;;;;10.18;5.10;;;;;;;10.18;60.16;100986.99;2759980;85;21041;-86
2022/04/17 19:38:35;;;;;;;10.20;7.22;;;;;;;10.08;60.62;100976.14;2774065;84;21102;-87
2022/04/17 19:42:36;;;;;;;8.23;5.35;;;;;;;10.02;60.78;100962.79;2780925;83;21014;-87
2022/04/17 19:46:37;;;;;;;6.97;5.67;;;;;;;9.97;61.77;100963.59;2773340;84;21940;-87
2022/04/17 19:50:39;;;;;;;12.33;7.37;;;;;;;9.86;63.28;100962.53;2716121;86;21055;-86